Heaters, West Virginia
Current Conditions -  °F | °C
As of 11:15 PM on Tuesday 27 Jan 2015 (Local Time) from KW22 Reporting Station
Light Snow Light Snow  
Wind Chill: -8°   Ceiling: 1500
Heat Index: -8°   Visibility: 5mi
Dew Point: -10°   Wind: 0mph
Humidity: 86%   Direction: NA
Pressure: 30.1"   Gusts: NA
Location:  38.76°N, 80.64°W
Report Text: KW22 280415Z AUTO 00000KT 5SM -SN SCT001 BKN015 OVC025 M08/M10 A3010 RMK AO2
Loading
Personal Weather Stations






























Interactive Weather Map New forecast layout! Learn more

10-Day Weather Forecast

Advertisements
Track Severe Weather on mobile